Time;durP1;ratioP1;P1;durP2;ratioP2;P2;SDS_P1;SDS_P2;PMS_P1;PMS_P2;Temp;Humidity;BMP_temperature;BMP_pressure;BME280_temperature;BME280_humidity;BME280_pressure;Samples;Min_cycle;Max_cycle;Signal;HPM_P1;HPM_P2
2021/09/15 00:00:00;;;;;;;11.53;10.53;;;20.60;99.90;;;;;;5033991;28;20171;-71
2021/09/15 00:02:26;;;;;;;10.87;9.90;;;20.60;99.90;;;;;;5029975;28;20258;-71
2021/09/15 00:04:51;;;;;;;10.40;9.50;;;20.60;99.90;;;;;;5025047;28;20211;-71
2021/09/15 00:07:17;;;;;;;11.47;10.40;;;20.60;99.90;;;;;;5015049;28;20255;-71
2021/09/15 00:09:43;;;;;;;11.97;11.07;;;20.60;99.90;;;;;;5016406;28;20621;-71
2021/09/15 00:12:09;;;;;;;11.60;10.40;;;20.60;99.90;;;;;;5027789;28;20203;-71
2021/09/15 00:14:34;;;;;;;12.20;11.10;;;20.60;99.90;;;;;;5025481;28;20450;-71
2021/09/15 00:17:00;;;;;;;12.57;11.40;;;20.60;99.90;;;;;;5020428;28;20180;-71
2021/09/15 00:19:25;;;;;;;12.10;11.20;;;20.50;99.90;;;;;;5037171;28;20176;-71
2021/09/15 00:21:51;;;;;;;11.43;10.43;;;20.50;99.90;;;;;;5037107;28;20203;-71
2021/09/15 00:24:16;;;;;;;11.70;10.80;;;20.50;99.90;;;;;;5021317;28;20222;-71
2021/09/15 00:26:42;;;;;;;12.83;10.03;;;20.40;99.90;;;;;;5014169;28;20180;-71
2021/09/15 00:29:08;;;;;;;12.23;11.00;;;20.40;99.90;;;;;;5018399;28;20183;-72
2021/09/15 00:31:33;;;;;;;12.50;11.30;;;20.40;99.90;;;;;;5017475;28;20206;-71
2021/09/15 00:33:59;;;;;;;12.10;11.00;;;20.40;99.90;;;;;;5017195;28;20907;-71
2021/09/15 00:36:24;;;;;;;12.00;10.67;;;20.40;99.90;;;;;;5017764;28;20203;-71
2021/09/15 00:38:50;;;;;;;11.70;10.73;;;20.40;99.90;;;;;;5017256;28;20527;-71
2021/09/15 00:41:15;;;;;;;12.10;10.90;;;20.30;99.90;;;;;;5018428;28;20204;-72
2021/09/15 00:44:10;;;;;;;11.20;10.20;;;20.30;99.90;;;;;;5029220;28;20185;-71
2021/09/15 00:46:39;;;;;;;11.77;10.67;;;20.20;99.90;;;;;;5037249;28;20190;-71
2021/09/15 00:49:06;;;;;;;12.30;11.10;;;20.20;99.90;;;;;;5036619;28;20950;-71
2021/09/15 00:51:37;;;;;;;12.17;11.07;;;20.10;99.90;;;;;;5019292;28;20453;-71
2021/09/15 00:54:07;;;;;;;12.13;11.23;;;20.10;99.90;;;;;;5040067;28;20451;-71
2021/09/15 00:56:33;;;;;;;11.20;10.20;;;20.10;99.90;;;;;;5035791;28;20481;-71
2021/09/15 00:58:59;;;;;;;11.93;10.83;;;20.00;99.90;;;;;;5037152;28;20759;-71
2021/09/15 01:01:25;;;;;;;11.43;10.43;;;20.00;99.90;;;;;;5036911;28;20440;-71
2021/09/15 01:03:50;;;;;;;12.70;11.50;;;20.00;99.90;;;;;;5032918;28;20501;-72
2021/09/15 01:06:16;;;;;;;11.50;10.50;;;19.90;99.90;;;;;;4999883;28;20223;-71
2021/09/15 01:08:42;;;;;;;13.10;11.90;;;20.00;99.90;;;;;;5016827;28;20427;-70
2021/09/15 01:11:08;;;;;;;13.07;11.87;;;19.90;99.90;;;;;;5016996;28;20262;-71
2021/09/15 01:13:35;;;;;;;12.23;11.20;;;19.90;99.90;;;;;;5016689;28;20451;-71
2021/09/15 01:16:01;;;;;;;12.87;11.57;;;19.90;99.90;;;;;;5017636;28;20462;-72
2021/09/15 01:18:27;;;;;;;12.87;11.83;;;19.90;99.90;;;;;;5016476;28;20401;-71
2021/09/15 01:20:53;;;;;;;13.00;11.80;;;19.80;99.90;;;;;;5016658;28;20592;-71
2021/09/15 01:23:20;;;;;;;13.43;12.27;;;19.80;99.90;;;;;;4999100;28;20410;-71
2021/09/15 01:25:45;;;;;;;12.20;11.10;;;19.80;99.90;;;;;;5018170;28;20426;-71
2021/09/15 01:28:11;;;;;;;11.53;10.43;;;19.80;99.90;;;;;;5016823;28;20438;-71
2021/09/15 01:30:38;;;;;;;11.80;10.80;;;19.80;99.90;;;;;;5016015;28;20187;-71
2021/09/15 01:33:03;;;;;;;12.17;11.10;;;19.90;99.90;;;;;;5017098;28;20175;-72
2021/09/15 01:35:29;;;;;;;12.17;11.17;;;19.80;99.90;;;;;;5017693;28;20477;-72
2021/09/15 01:37:54;;;;;;;12.30;11.17;;;19.80;99.90;;;;;;5016338;28;20539;-72
2021/09/15 01:40:20;;;;;;;12.80;11.70;;;19.80;99.90;;;;;;5015654;28;20204;-71
2021/09/15 01:42:46;;;;;;;12.17;10.93;;;19.80;99.90;;;;;;5016352;28;20176;-72
2021/09/15 01:45:12;;;;;;;12.67;11.47;;;19.80;99.90;;;;;;5015955;28;20182;-72
2021/09/15 01:47:39;;;;;;;12.90;11.70;;;19.80;99.90;;;;;;5017202;28;20237;-72
2021/09/15 01:50:06;;;;;;;17.67;12.40;;;19.80;99.90;;;;;;5015398;28;20411;-72
2021/09/15 01:52:32;;;;;;;13.00;11.83;;;19.80;99.90;;;;;;5015322;28;20500;-71
2021/09/15 01:54:57;;;;;;;12.67;11.53;;;19.80;99.90;;;;;;5015799;28;20947;-72
2021/09/15 01:57:23;;;;;;;12.67;11.57;;;19.80;99.90;;;;;;5017047;28;20611;-71
2021/09/15 01:59:48;;;;;;;13.20;12.10;;;19.80;99.90;;;;;;5015572;28;20167;-72
2021/09/15 02:02:14;;;;;;;12.40;11.30;;;19.80;99.90;;;;;;5015309;28;20658;-72
2021/09/15 02:04:41;;;;;;;12.00;11.00;;;19.90;99.90;;;;;;5015507;28;20203;-71
2021/09/15 02:07:08;;;;;;;11.90;10.90;;;19.90;99.90;;;;;;5016253;28;20172;-73
2021/09/15 02:09:34;;;;;;;12.27;11.20;;;19.90;99.90;;;;;;5016955;28;20529;-72
2021/09/15 02:11:59;;;;;;;13.30;12.10;;;19.90;99.90;;;;;;4998065;28;20441;-71
2021/09/15 02:14:25;;;;;;;14.07;12.80;;;20.00;99.90;;;;;;5015105;28;20415;-72
2021/09/15 02:16:51;;;;;;;12.23;11.13;;;20.00;99.90;;;;;;5015836;28;20168;-72
2021/09/15 02:19:18;;;;;;;12.20;11.10;;;20.00;99.90;;;;;;5016279;28;20488;-72
2021/09/15 02:21:44;;;;;;;12.83;11.70;;;19.90;99.90;;;;;;5015388;28;20430;-72
2021/09/15 02:24:10;;;;;;;12.23;11.03;;;19.90;99.90;;;;;;5015400;28;20496;-72
2021/09/15 02:26:36;;;;;;;12.80;11.30;;;19.90;99.90;;;;;;5015363;28;20443;-72
2021/09/15 02:29:03;;;;;;;13.30;12.13;;;19.90;99.90;;;;;;5003544;28;20419;-71
2021/09/15 02:31:29;;;;;;;13.90;12.70;;;19.90;99.90;;;;;;5014684;28;20430;-72
2021/09/15 02:33:55;;;;;;;13.57;12.47;;;19.90;99.90;;;;;;5015075;28;21332;-72
2021/09/15 02:36:21;;;;;;;14.43;13.10;;;20.00;99.90;;;;;;5015044;28;20454;-71
2021/09/15 02:38:47;;;;;;;14.35;13.05;;;20.00;99.90;;;;;;5014457;28;20421;-72
2021/09/15 02:41:13;;;;;;;13.30;11.90;;;20.00;99.90;;;;;;5016019;28;20696;-72
2021/09/15 02:43:38;;;;;;;13.23;12.23;;;20.00;99.90;;;;;;5026716;28;20505;-72
2021/09/15 02:46:04;;;;;;;13.80;12.60;;;20.10;99.90;;;;;;5034841;28;20170;-72
2021/09/15 02:48:29;;;;;;;13.13;11.67;;;20.10;99.90;;;;;;5034907;28;20183;-71
2021/09/15 02:50:55;;;;;;;11.90;10.90;;;20.10;99.90;;;;;;5033841;28;20206;-71
2021/09/15 02:53:21;;;;;;;12.30;11.00;;;20.10;99.90;;;;;;5032681;28;20656;-72
2021/09/15 02:55:46;;;;;;;13.53;12.13;;;20.10;99.90;;;;;;5034374;28;20567;-72
2021/09/15 02:58:12;;;;;;;12.63;11.40;;;20.10;99.90;;;;;;5034217;28;20174;-72
2021/09/15 03:00:37;;;;;;;14.43;12.93;;;20.10;99.90;;;;;;5022876;28;20195;-72
2021/09/15 03:03:03;;;;;;;13.87;12.43;;;20.10;99.90;;;;;;5032540;28;20268;-72
2021/09/15 03:05:31;;;;;;;14.93;13.60;;;20.10;99.90;;;;;;4999731;28;20681;-71
2021/09/15 03:07:57;;;;;;;14.13;12.80;;;20.10;99.90;;;;;;5014333;28;20904;-72
2021/09/15 03:10:23;;;;;;;13.30;11.90;;;20.10;99.90;;;;;;4997031;28;20450;-72
2021/09/15 03:12:48;;;;;;;12.07;11.07;;;20.10;99.90;;;;;;5014491;28;20491;-71
2021/09/15 03:15:14;;;;;;;13.30;12.10;;;20.10;99.90;;;;;;5024528;28;20209;-72
2021/09/15 03:17:39;;;;;;;13.70;12.40;;;20.10;99.90;;;;;;5034361;28;20536;-72
2021/09/15 03:20:05;;;;;;;13.83;12.53;;;20.10;99.90;;;;;;5034116;28;20167;-71
2021/09/15 03:22:31;;;;;;;13.60;12.40;;;20.10;99.90;;;;;;5035071;28;20178;-72
2021/09/15 03:24:57;;;;;;;13.47;12.17;;;20.10;99.90;;;;;;5033352;28;20429;-72
2021/09/15 03:27:22;;;;;;;13.33;12.10;;;20.00;99.90;;;;;;5035150;28;20644;-71
2021/09/15 03:29:48;;;;;;;12.67;11.40;;;20.10;99.90;;;;;;5047576;28;20170;-72
2021/09/15 03:32:13;;;;;;;13.20;12.10;;;20.00;99.90;;;;;;5053346;28;20198;-72
2021/09/15 03:34:39;;;;;;;14.00;12.90;;;20.10;99.90;;;;;;5034556;28;20237;-72
2021/09/15 03:37:05;;;;;;;12.87;11.60;;;20.00;99.90;;;;;;5056663;28;20194;-71
2021/09/15 03:39:30;;;;;;;14.37;12.87;;;20.00;99.90;;;;;;5040837;28;20187;-72
2021/09/15 03:41:56;;;;;;;14.00;12.77;;;20.00;99.90;;;;;;5020316;28;20210;-71
2021/09/15 03:44:21;;;;;;;13.23;12.13;;;20.00;99.90;;;;;;4996859;28;20701;-72
2021/09/15 03:46:47;;;;;;;13.03;11.77;;;20.00;99.90;;;;;;5019266;28;20218;-72
2021/09/15 03:49:13;;;;;;;12.07;10.97;;;20.00;99.90;;;;;;5033385;28;20234;-71
2021/09/15 03:51:38;;;;;;;13.33;12.17;;;20.00;99.90;;;;;;5033649;28;20575;-72
2021/09/15 03:54:04;;;;;;;13.20;12.00;;;20.00;99.90;;;;;;5032951;28;20173;-71
2021/09/15 03:56:29;;;;;;;13.13;11.87;;;20.00;99.90;;;;;;5033336;28;20680;-70
2021/09/15 03:58:55;;;;;;;13.27;12.07;;;20.00;99.90;;;;;;5031718;28;20199;-71
2021/09/15 04:01:20;;;;;;;13.00;11.80;;;20.10;99.90;;;;;;5033285;28;20206;-71
2021/09/15 04:03:46;;;;;;;14.40;13.00;;;20.10;99.90;;;;;;5036165;28;20233;-71
2021/09/15 04:06:11;;;;;;;12.70;11.60;;;20.10;99.90;;;;;;5037619;28;20193;-70
2021/09/15 04:08:37;;;;;;;13.13;11.80;;;20.00;99.90;;;;;;5035928;28;20556;-70
2021/09/15 04:11:02;;;;;;;14.20;12.80;;;20.00;99.90;;;;;;5037660;28;20191;-70
2021/09/15 04:13:28;;;;;;;15.43;13.30;;;20.00;99.90;;;;;;5037284;28;20178;-70
2021/09/15 04:15:54;;;;;;;12.60;11.50;;;20.00;99.90;;;;;;5043337;28;20730;-70
2021/09/15 04:18:19;;;;;;;13.00;12.00;;;20.00;99.90;;;;;;5042599;28;20485;-71
2021/09/15 04:20:46;;;;;;;14.10;12.70;;;20.00;99.90;;;;;;5017498;28;20257;-71
2021/09/15 04:23:16;;;;;;;13.00;11.90;;;20.10;99.90;;;;;;5017464;28;20530;-71
2021/09/15 04:31:16;;;;;;;14.40;13.10;;;20.10;99.90;;;;;;5016561;28;20449;-70
2021/09/15 04:33:41;;;;;;;16.63;15.20;;;20.10;99.90;;;;;;5017265;28;20406;-71
2021/09/15 04:36:07;;;;;;;15.07;13.80;;;20.10;99.90;;;;;;5019234;28;20461;-70
2021/09/15 04:38:33;;;;;;;15.50;14.20;;;20.10;99.90;;;;;;5018840;28;20629;-70
2021/09/15 04:40:59;;;;;;;15.57;14.17;;;20.10;99.90;;;;;;5019756;28;20501;-70
2021/09/15 04:43:24;;;;;;;14.53;13.23;;;20.10;99.90;;;;;;5024342;28;20172;-71
2021/09/15 04:45:50;;;;;;;15.67;14.17;;;20.10;99.90;;;;;;5021693;28;20258;-71
2021/09/15 04:48:15;;;;;;;14.70;13.43;;;20.10;99.90;;;;;;5018143;28;20240;-71
2021/09/15 04:50:41;;;;;;;14.87;13.47;;;20.10;99.90;;;;;;5000176;28;20219;-71
2021/09/15 04:53:06;;;;;;;15.13;13.73;;;20.00;99.90;;;;;;5019603;28;20254;-71
2021/09/15 04:55:33;;;;;;;14.40;13.10;;;20.00;99.90;;;;;;5017695;28;20333;-71
2021/09/15 04:57:59;;;;;;;14.03;12.93;;;20.10;99.90;;;;;;5016886;28;20545;-71
2021/09/15 05:00:25;;;;;;;14.93;13.63;;;20.10;99.90;;;;;;4999296;28;20443;-72
2021/09/15 05:02:50;;;;;;;15.30;12.87;;;20.10;99.90;;;;;;5016661;28;20164;-71
2021/09/15 05:05:16;;;;;;;19.33;13.50;;;20.10;99.90;;;;;;5018256;28;20176;-72
2021/09/15 05:07:41;;;;;;;15.47;14.03;;;20.10;99.90;;;;;;5016903;28;20175;-71
2021/09/15 05:10:07;;;;;;;13.77;12.40;;;20.10;99.90;;;;;;4998671;28;20175;-71
2021/09/15 05:12:33;;;;;;;15.37;13.97;;;20.10;99.90;;;;;;5016267;28;20199;-71
2021/09/15 05:14:59;;;;;;;14.57;13.20;;;20.00;99.90;;;;;;5017079;28;20536;-72
2021/09/15 05:17:25;;;;;;;14.70;13.30;;;20.10;99.90;;;;;;5016489;28;20549;-72
2021/09/15 05:19:50;;;;;;;14.30;12.90;;;20.10;99.90;;;;;;4998772;28;20164;-72
2021/09/15 05:22:16;;;;;;;16.30;14.43;;;20.10;99.90;;;;;;5016178;28;20426;-72
2021/09/15 05:24:42;;;;;;;15.37;13.80;;;20.10;99.90;;;;;;5017739;28;20175;-72
2021/09/15 05:27:07;;;;;;;15.23;13.70;;;20.00;99.90;;;;;;5016839;28;20182;-71
2021/09/15 05:29:33;;;;;;;13.77;12.67;;;20.00;99.90;;;;;;5019210;28;20645;-71
2021/09/15 05:31:59;;;;;;;14.53;13.07;;;20.00;99.90;;;;;;5025234;28;20201;-70
2021/09/15 05:34:24;;;;;;;17.73;16.10;;;20.10;99.90;;;;;;5005210;28;20938;-71
2021/09/15 05:36:50;;;;;;;16.23;14.93;;;20.00;99.90;;;;;;5017562;28;20419;-72
2021/09/15 05:39:16;;;;;;;16.43;14.83;;;20.00;99.90;;;;;;5025312;28;20230;-71
2021/09/15 05:41:41;;;;;;;15.60;14.20;;;20.10;99.90;;;;;;5028364;28;20202;-72
2021/09/15 05:44:07;;;;;;;15.43;14.07;;;20.10;99.90;;;;;;5024788;28;20529;-70
2021/09/15 05:46:32;;;;;;;15.70;14.27;;;20.10;99.90;;;;;;5019579;28;20191;-71
2021/09/15 05:48:58;;;;;;;14.77;13.37;;;20.20;99.90;;;;;;5026742;28;20248;-72
2021/09/15 05:51:24;;;;;;;14.97;13.50;;;20.20;99.90;;;;;;5007084;28;20229;-70
2021/09/15 05:53:49;;;;;;;13.83;12.50;;;20.20;99.90;;;;;;5013610;28;20203;-71
2021/09/15 05:56:15;;;;;;;15.00;13.50;;;20.30;99.90;;;;;;5028378;28;20210;-71
2021/09/15 05:58:40;;;;;;;14.90;13.63;;;20.30;99.90;;;;;;5032900;28;20573;-71
2021/09/15 06:01:06;;;;;;;15.80;14.30;;;20.30;99.90;;;;;;5029873;28;20198;-71
2021/09/15 06:03:32;;;;;;;14.60;12.70;;;20.30;99.90;;;;;;5029367;28;20205;-70
2021/09/15 06:05:58;;;;;;;13.47;12.27;;;20.30;99.90;;;;;;5029218;28;21072;-71
2021/09/15 06:08:24;;;;;;;12.83;11.77;;;20.30;99.90;;;;;;5029854;28;20492;-72
2021/09/15 06:10:49;;;;;;;13.33;12.23;;;20.30;99.90;;;;;;5029902;28;20663;-72
2021/09/15 06:13:15;;;;;;;13.53;12.00;;;20.30;99.90;;;;;;5029728;28;20179;-72
2021/09/15 06:15:41;;;;;;;12.43;11.23;;;20.40;99.90;;;;;;5027775;28;20230;-72
2021/09/15 06:18:07;;;;;;;12.50;11.30;;;20.40;99.90;;;;;;5012512;28;20458;-73
2021/09/15 06:20:32;;;;;;;12.50;11.40;;;20.40;99.90;;;;;;5009679;28;20919;-72
2021/09/15 06:22:58;;;;;;;12.63;11.53;;;20.40;99.90;;;;;;5010284;28;20172;-72
2021/09/15 06:25:24;;;;;;;12.37;10.90;;;20.40;99.90;;;;;;5021764;28;20227;-72
2021/09/15 06:27:51;;;;;;;12.50;11.30;;;20.40;99.90;;;;;;5026514;28;20183;-72
2021/09/15 06:30:17;;;;;;;13.60;12.00;;;20.40;99.90;;;;;;5018285;28;20826;-72
2021/09/15 06:32:43;;;;;;;12.07;10.97;;;20.40;99.90;;;;;;5022945;28;20454;-72
2021/09/15 06:35:14;;;;;;;12.90;10.77;;;20.50;99.90;;;;;;5028166;28;20317;-71
2021/09/15 06:37:41;;;;;;;11.80;10.80;;;20.50;99.90;;;;;;5028633;28;20565;-72
2021/09/15 06:40:07;;;;;;;12.60;11.50;;;20.50;99.90;;;;;;5012361;28;20469;-73
2021/09/15 06:42:33;;;;;;;10.70;9.90;;;20.50;99.90;;;;;;5025949;28;20450;-72
2021/09/15 06:44:59;;;;;;;11.47;10.50;;;20.60;99.90;;;;;;5021357;28;21373;-72
2021/09/15 06:47:25;;;;;;;12.30;11.10;;;20.60;99.90;;;;;;5024196;28;20199;-71
2021/09/15 06:49:50;;;;;;;10.80;9.80;;;20.60;99.90;;;;;;5026784;28;20463;-72
2021/09/15 06:52:16;;;;;;;15.30;11.53;;;20.60;99.90;;;;;;5033463;28;20524;-70
2021/09/15 06:54:45;;;;;;;11.37;10.37;;;20.60;99.90;;;;;;5012590;28;20313;-72
2021/09/15 06:57:11;;;;;;;10.90;9.90;;;20.60;99.90;;;;;;5010443;28;20473;-71
2021/09/15 06:59:37;;;;;;;11.27;10.27;;;20.60;99.90;;;;;;5013309;28;20430;-73
2021/09/15 07:02:02;;;;;;;10.63;9.60;;;20.60;99.90;;;;;;5010375;28;20512;-72
2021/09/15 07:04:28;;;;;;;10.82;9.93;;;20.70;99.90;;;;;;5010280;28;20984;-71
2021/09/15 07:06:54;;;;;;;11.20;10.20;;;20.70;99.90;;;;;;5010650;28;20726;-71
2021/09/15 07:09:19;;;;;;;9.73;8.97;;;20.70;99.90;;;;;;5028905;28;21316;-72
2021/09/15 07:11:45;;;;;;;10.63;9.47;;;20.70;99.90;;;;;;5010957;28;20214;-72
2021/09/15 07:14:11;;;;;;;9.70;8.80;;;20.70;99.90;;;;;;5025801;28;20229;-72
2021/09/15 07:16:38;;;;;;;9.80;9.00;;;20.60;99.90;;;;;;5027860;28;20239;-71
2021/09/15 07:19:03;;;;;;;9.03;8.33;;;20.70;99.90;;;;;;5011399;28;20211;-72
2021/09/15 07:21:29;;;;;;;10.27;9.37;;;20.70;99.90;;;;;;5026962;28;21016;-72
2021/09/15 07:23:55;;;;;;;9.80;9.00;;;20.70;99.90;;;;;;5028774;28;20437;-71
2021/09/15 07:26:20;;;;;;;10.30;9.50;;;20.80;99.90;;;;;;4992606;28;20578;-71
2021/09/15 07:28:50;;;;;;;11.80;10.43;;;20.70;99.90;;;;;;5015271;28;20209;-71
2021/09/15 07:31:16;;;;;;;10.37;9.47;;;20.80;99.90;;;;;;5020879;28;20254;-72
2021/09/15 07:33:42;;;;;;;10.63;9.17;;;20.80;99.90;;;;;;5015017;28;20441;-71
2021/09/15 07:36:09;;;;;;;10.60;9.50;;;20.80;99.90;;;;;;5022598;28;20697;-72
2021/09/15 07:38:35;;;;;;;9.57;8.77;;;20.80;99.90;;;;;;5008580;28;20226;-71
2021/09/15 07:41:00;;;;;;;9.60;8.70;;;20.90;99.90;;;;;;5017598;28;20578;-71
2021/09/15 07:43:29;;;;;;;9.10;8.30;;;20.90;99.90;;;;;;5015304;28;20199;-71
2021/09/15 07:45:55;;;;;;;9.17;8.37;;;21.00;99.90;;;;;;5020017;28;20213;-70
2021/09/15 07:48:21;;;;;;;9.00;8.20;;;21.00;99.90;;;;;;5026732;28;20453;-71
2021/09/15 07:50:50;;;;;;;9.27;8.47;;;21.10;99.90;;;;;;5026388;28;20206;-71
2021/09/15 07:53:16;;;;;;;9.20;8.40;;;21.10;99.90;;;;;;5027789;28;20209;-72
2021/09/15 07:55:42;;;;;;;9.43;8.70;;;21.10;99.90;;;;;;5009013;28;20465;-71
2021/09/15 07:58:10;;;;;;;8.73;7.93;;;21.10;99.90;;;;;;5012208;28;20830;-72
2021/09/15 08:00:39;;;;;;;9.20;8.40;;;21.10;99.90;;;;;;4990059;28;20210;-71
2021/09/15 08:03:04;;;;;;;9.10;8.10;;;21.10;99.90;;;;;;5008411;28;20466;-73
2021/09/15 08:05:30;;;;;;;9.07;8.23;;;21.20;99.90;;;;;;5025961;28;20461;-72
2021/09/15 08:07:57;;;;;;;7.83;7.23;;;21.10;99.90;;;;;;5019795;28;20223;-70
2021/09/15 08:10:23;;;;;;;8.83;8.03;;;21.10;99.90;;;;;;5009582;28;20203;-72
2021/09/15 08:12:50;;;;;;;8.63;8.00;;;21.10;99.90;;;;;;5007584;28;20453;-71
2021/09/15 08:15:16;;;;;;;8.97;8.07;;;21.10;99.90;;;;;;5015860;28;20469;-70
2021/09/15 08:17:42;;;;;;;8.80;8.10;;;21.10;99.90;;;;;;5026240;28;21252;-71
2021/09/15 08:20:09;;;;;;;9.77;8.03;;;21.10;99.90;;;;;;5009486;28;20587;-72
2021/09/15 08:22:35;;;;;;;7.30;6.80;;;21.20;99.90;;;;;;5007067;28;20472;-72
2021/09/15 08:25:00;;;;;;;7.63;7.00;;;21.20;99.90;;;;;;5026358;28;20905;-71
2021/09/15 08:27:29;;;;;;;8.30;7.57;;;21.20;99.90;;;;;;5026330;28;20337;-73
2021/09/15 08:29:55;;;;;;;8.33;7.63;;;21.30;99.90;;;;;;4999667;28;20211;-72
2021/09/15 08:32:20;;;;;;;8.17;7.50;;;21.30;99.90;;;;;;5008151;28;20515;-71
2021/09/15 08:34:51;;;;;;;7.50;6.90;;;21.40;99.90;;;;;;5009184;28;20208;-71
2021/09/15 08:37:20;;;;;;;7.90;7.30;;;21.40;99.90;;;;;;5027888;28;20194;-72
2021/09/15 08:39:46;;;;;;;8.73;7.93;;;21.40;99.90;;;;;;5025058;28;20441;-72
2021/09/15 08:42:12;;;;;;;9.03;7.97;;;21.40;99.90;;;;;;5027434;28;20825;-71
2021/09/15 08:44:39;;;;;;;10.90;8.17;;;21.30;99.90;;;;;;5025656;28;20205;-71
2021/09/15 08:47:06;;;;;;;9.60;8.17;;;21.30;99.90;;;;;;4995629;28;20483;-71
2021/09/15 08:49:33;;;;;;;8.50;7.70;;;21.30;99.90;;;;;;5007987;28;20821;-72
2021/09/15 08:52:03;;;;;;;8.67;7.87;;;21.30;99.90;;;;;;5010858;28;20498;-72
2021/09/15 08:54:28;;;;;;;9.10;8.30;;;21.20;99.90;;;;;;5026908;28;20472;-73
2021/09/15 08:56:54;;;;;;;9.00;8.10;;;21.20;99.90;;;;;;5029780;28;20429;-71
2021/09/15 08:59:19;;;;;;;8.60;7.80;;;21.20;99.90;;;;;;5023210;28;20395;-73
2021/09/15 09:01:45;;;;;;;9.90;8.53;;;21.10;99.90;;;;;;5012313;28;20206;-72
2021/09/15 09:04:16;;;;;;;8.87;8.07;;;21.20;99.90;;;;;;5025460;28;20222;-73
2021/09/15 09:06:49;;;;;;;8.43;7.70;;;21.20;99.90;;;;;;5021939;28;20217;-71
2021/09/15 09:09:15;;;;;;;9.17;8.37;;;21.20;99.90;;;;;;5022975;28;20465;-71
2021/09/15 09:11:41;;;;;;;8.10;7.30;;;21.20;99.90;;;;;;5012617;28;20452;-71
2021/09/15 09:14:09;;;;;;;8.67;7.77;;;21.20;99.90;;;;;;5046834;28;20534;-72
2021/09/15 09:16:51;;;;;;;9.10;7.60;;;21.30;99.90;;;;;;5005615;28;20218;-71
2021/09/15 09:19:20;;;;;;;9.33;8.43;;;21.20;99.90;;;;;;5029018;28;20449;-74
2021/09/15 09:21:53;;;;;;;8.30;7.50;;;21.20;99.90;;;;;;5030360;28;20926;-71
2021/09/15 09:24:20;;;;;;;9.40;8.53;;;21.20;99.90;;;;;;5028112;28;20472;-72
2021/09/15 09:26:58;;;;;;;9.10;8.20;;;21.20;99.90;;;;;;5028425;28;20445;-72
2021/09/15 09:29:33;;;;;;;9.30;7.83;;;21.20;99.90;;;;;;5029615;28;20560;-70
2021/09/15 09:32:04;;;;;;;9.77;8.37;;;21.20;99.90;;;;;;5029879;28;20437;-72
2021/09/15 09:34:44;;;;;;;10.70;8.93;;;21.20;99.90;;;;;;5026291;28;20535;-72
2021/09/15 09:37:18;;;;;;;9.73;8.50;;;21.20;99.90;;;;;;5033357;28;20445;-71
2021/09/15 09:39:48;;;;;;;10.20;9.30;;;21.30;99.90;;;;;;5029075;28;20441;-71
2021/09/15 09:42:23;;;;;;;9.27;8.27;;;21.20;99.90;;;;;;5030612;28;20484;-70
2021/09/15 09:44:52;;;;;;;9.53;8.73;;;21.20;99.90;;;;;;5026969;28;20559;-71
2021/09/15 09:47:19;;;;;;;10.10;8.23;;;21.20;99.90;;;;;;5014461;28;20975;-71
2021/09/15 09:49:58;;;;;;;8.70;7.80;;;21.30;99.90;;;;;;5008443;28;20465;-72
2021/09/15 09:52:24;;;;;;;9.13;7.60;;;21.30;99.90;;;;;;5009940;28;20458;-70
2021/09/15 09:54:58;;;;;;;9.97;8.73;;;21.40;99.90;;;;;;5011320;28;21041;-72
2021/09/15 09:57:25;;;;;;;14.00;12.50;;;21.40;99.90;;;;;;5029425;28;20659;-71
2021/09/15 09:59:52;;;;;;;14.87;13.37;;;21.50;99.90;;;;;;5031279;28;20461;-69
2021/09/15 10:02:18;;;;;;;22.10;17.53;;;21.40;99.90;;;;;;5030831;28;20547;-71
2021/09/15 10:04:43;;;;;;;14.37;11.97;;;21.50;99.90;;;;;;5025964;28;21130;-72
2021/09/15 10:07:12;;;;;;;12.90;11.50;;;21.50;99.90;;;;;;5048764;28;20206;-71
2021/09/15 10:09:40;;;;;;;11.00;9.90;;;21.50;99.90;;;;;;5021445;28;20226;-73
2021/09/15 10:12:06;;;;;;;10.27;9.27;;;21.50;99.90;;;;;;5035270;28;20480;-72
2021/09/15 10:14:32;;;;;;;9.70;8.73;;;21.50;99.90;;;;;;5011529;28;20796;-72
2021/09/15 10:17:04;;;;;;;11.03;9.67;;;21.40;99.90;;;;;;5029212;28;20452;-71
2021/09/15 10:19:39;;;;;;;9.80;8.80;;;21.40;99.90;;;;;;5019591;28;20214;-71
2021/09/15 10:22:06;;;;;;;8.63;7.90;;;21.50;99.90;;;;;;5031250;28;20547;-71
2021/09/15 10:24:47;;;;;;;9.20;8.30;;;21.50;99.90;;;;;;5033918;28;20433;-72
2021/09/15 10:27:14;;;;;;;12.13;9.47;;;21.30;99.90;;;;;;5011220;28;20441;-73
2021/09/15 10:29:41;;;;;;;12.80;8.93;;;21.30;99.90;;;;;;5011459;28;20548;-73
2021/09/15 10:32:10;;;;;;;10.60;9.50;;;21.20;99.90;;;;;;5011149;28;20437;-71
2021/09/15 10:34:38;;;;;;;14.47;11.20;;;21.20;99.90;;;;;;5011528;28;20452;-72
2021/09/15 10:37:13;;;;;;;13.73;10.10;;;21.10;99.90;;;;;;5026104;28;20537;-71
2021/09/15 10:39:58;;;;;;;12.90;10.63;;;21.00;99.90;;;;;;5014032;28;20434;-71
2021/09/15 10:45:10;;;;;;;10.43;9.50;;;20.80;99.90;;;;;;5014043;28;20457;-73
2021/09/15 10:47:37;;;;;;;9.53;8.60;;;20.80;99.90;;;;;;5020552;28;20479;-71
2021/09/15 10:50:03;;;;;;;9.87;8.93;;;20.90;99.90;;;;;;5028272;28;20491;-71
2021/09/15 10:52:33;;;;;;;10.57;8.07;;;20.80;99.90;;;;;;5027604;28;20445;-73
2021/09/15 10:55:00;;;;;;;13.83;8.43;;;20.90;99.90;;;;;;5024509;28;20466;-73
2021/09/15 10:57:31;;;;;;;8.20;7.50;;;20.90;99.90;;;;;;5010374;28;20890;-70
2021/09/15 11:00:21;;;;;;;9.50;7.20;;;20.90;99.90;;;;;;5010201;28;20440;-73
2021/09/15 11:02:49;;;;;;;7.87;7.17;;;21.00;99.90;;;;;;5012499;28;20902;-72
2021/09/15 11:05:30;;;;;;;7.00;6.30;;;21.10;99.90;;;;;;5010691;28;20785;-72
2021/09/15 11:07:59;;;;;;;7.50;6.70;;;21.10;99.90;;;;;;5012253;28;20514;-72
2021/09/15 11:10:31;;;;;;;7.40;6.67;;;21.10;99.90;;;;;;5008198;28;20523;-71
2021/09/15 11:13:28;;;;;;;8.23;7.43;;;21.10;99.90;;;;;;5009722;28;20434;-73
2021/09/15 11:15:55;;;;;;;7.73;7.03;;;21.00;99.90;;;;;;4991189;28;20489;-71
2021/09/15 11:18:23;;;;;;;8.40;7.60;;;21.00;99.90;;;;;;5011363;28;20826;-72
2021/09/15 11:21:10;;;;;;;9.57;8.53;;;20.90;99.90;;;;;;5030811;28;20538;-71
2021/09/15 11:23:36;;;;;;;8.23;7.43;;;20.90;99.90;;;;;;5011540;28;21312;-71
2021/09/15 11:26:04;;;;;;;7.73;7.03;;;20.90;99.90;;;;;;5027615;28;20458;-71
2021/09/15 11:28:30;;;;;;;9.10;7.63;;;20.80;99.90;;;;;;5027889;28;20248;-73
2021/09/15 11:30:56;;;;;;;7.23;6.53;;;20.70;99.90;;;;;;5028196;28;20441;-72
2021/09/15 11:33:32;;;;;;;7.60;6.80;;;20.70;99.90;;;;;;5010035;28;20602;-72
2021/09/15 11:36:00;;;;;;;4.60;4.20;;;20.70;99.90;;;;;;5027821;28;20214;-71
2021/09/15 11:38:28;;;;;;;3.73;3.43;;;20.60;99.90;;;;;;5009699;28;20550;-72
2021/09/15 11:41:15;;;;;;;4.33;3.93;;;20.50;99.90;;;;;;5025034;28;20461;-72
2021/09/15 11:43:45;;;;;;;4.93;4.47;;;20.40;99.90;;;;;;5028795;28;20973;-71
2021/09/15 11:46:11;;;;;;;5.57;4.53;;;20.50;99.90;;;;;;5027095;28;20449;-70
2021/09/15 11:48:41;;;;;;;3.83;3.53;;;20.50;99.90;;;;;;5027118;28;20495;-72
2021/09/15 11:51:21;;;;;;;3.33;3.00;;;20.50;99.90;;;;;;5027155;28;20452;-71
2021/09/15 11:53:55;;;;;;;2.43;2.23;;;20.60;99.90;;;;;;5026349;28;20441;-73
2021/09/15 11:56:28;;;;;;;3.23;2.40;;;20.50;99.90;;;;;;5027114;28;20532;-72
2021/09/15 11:58:54;;;;;;;3.73;2.70;;;20.60;99.90;;;;;;5031520;28;20434;-72
2021/09/15 12:01:20;;;;;;;6.20;3.13;;;20.60;99.90;;;;;;5028455;28;20496;-73
2021/09/15 12:03:47;;;;;;;3.33;2.77;;;20.60;99.90;;;;;;5029837;28;20720;-73
2021/09/15 12:06:13;;;;;;;6.73;4.10;;;20.70;99.90;;;;;;5029425;28;20455;-73
2021/09/15 12:08:39;;;;;;;4.77;3.30;;;20.80;99.90;;;;;;5017352;28;20454;-73
2021/09/15 12:11:05;;;;;;;4.30;3.90;;;20.90;99.90;;;;;;5026361;28;20201;-73
2021/09/15 12:13:33;;;;;;;4.57;4.15;;;21.00;99.90;;;;;;5031162;28;20429;-73
2021/09/15 12:16:00;;;;;;;4.00;3.33;;;21.10;99.90;;;;;;5032636;28;20217;-71
2021/09/15 12:18:51;;;;;;;6.00;4.50;;;21.10;99.90;;;;;;5013961;28;20458;-73
2021/09/15 12:21:19;;;;;;;3.37;3.07;;;21.30;99.90;;;;;;5017226;28;20503;-73
2021/09/15 12:23:45;;;;;;;5.23;4.37;;;21.50;99.90;;;;;;5033905;28;21179;-73
2021/09/15 12:26:12;;;;;;;5.40;4.33;;;21.70;99.90;;;;;;5036466;28;20436;-72
2021/09/15 12:28:38;;;;;;;6.17;5.63;;;21.90;99.90;;;;;;5036198;28;20437;-70
2021/09/15 12:31:05;;;;;;;5.97;5.47;;;22.00;99.90;;;;;;5034831;28;20460;-71
2021/09/15 12:33:41;;;;;;;7.13;6.33;;;22.00;99.90;;;;;;5035739;28;20537;-72
2021/09/15 12:36:19;;;;;;;6.40;5.80;;;22.00;99.90;;;;;;5033587;28;20837;-71
2021/09/15 12:39:00;;;;;;;8.97;7.37;;;22.00;99.90;;;;;;5032458;28;20503;-71
2021/09/15 12:41:47;;;;;;;8.40;7.67;;;21.80;99.90;;;;;;5035637;28;20985;-73
2021/09/15 12:44:13;;;;;;;9.37;8.50;;;21.90;99.90;;;;;;5035167;28;20453;-72